Time;durP1;ratioP1;P1;durP2;ratioP2;P2;SDS_P1;SDS_P2;PMS_P1;PMS_P2;Temp;Humidity;BMP_temperature;BMP_pressure;BME280_temperature;BME280_humidity;BME280_pressure;Samples;Min_cycle;Max_cycle;Signal;HPM_P1;HPM_P2
2023/06/01 00:00:15;;;;;;;;;;;16.60;71.30;;;;;;5037431;28;19956;-77
2023/06/01 00:02:41;;;;;;;;;;;16.50;71.40;;;;;;5030441;28;19909;-77
2023/06/01 00:05:06;;;;;;;;;;;16.60;71.30;;;;;;5032093;28;19917;-77
2023/06/01 00:07:32;;;;;;;;;;;16.60;71.00;;;;;;5028465;28;20673;-77
2023/06/01 00:09:58;;;;;;;;;;;16.60;71.10;;;;;;5027942;28;20083;-77
2023/06/01 00:12:24;;;;;;;;;;;16.60;71.10;;;;;;5034703;28;20039;-77
2023/06/01 00:14:49;;;;;;;;;;;16.50;71.20;;;;;;5039374;28;19919;-77
2023/06/01 00:17:16;;;;;;;;;;;16.50;71.40;;;;;;5032258;28;20413;-77
2023/06/01 00:19:44;;;;;;;;;;;16.50;71.40;;;;;;5032407;28;19908;-77
2023/06/01 00:22:10;;;;;;;;;;;16.50;71.40;;;;;;5027870;28;19916;-77
2023/06/01 00:24:36;;;;;;;;;;;16.40;71.40;;;;;;5031305;28;19909;-77
2023/06/01 00:27:02;;;;;;;;;;;16.40;71.40;;;;;;5037494;28;19913;-77
2023/06/01 00:29:27;;;;;;;;;;;16.50;71.40;;;;;;5029883;28;19929;-77
2023/06/01 00:31:53;;;;;;;;;;;16.40;71.50;;;;;;5033313;28;20046;-79
2023/06/01 00:34:19;;;;;;;;;;;16.40;71.80;;;;;;5030903;28;19958;-78
2023/06/01 00:36:44;;;;;;;;;;;16.40;71.60;;;;;;5033678;28;19924;-78
2023/06/01 00:39:10;;;;;;;;;;;16.40;71.60;;;;;;5036933;28;19908;-78
2023/06/01 00:41:35;;;;;;;;;;;16.40;71.80;;;;;;5032078;28;19917;-77
2023/06/01 00:44:01;;;;;;;;;;;16.40;71.80;;;;;;5036341;28;19909;-79
2023/06/01 00:46:27;;;;;;;;;;;16.40;71.80;;;;;;5031559;28;19918;-79
2023/06/01 00:48:53;;;;;;;;;;;16.30;71.80;;;;;;5033587;28;19917;-79
2023/06/01 00:51:18;;;;;;;;;;;16.40;71.80;;;;;;5027474;28;20285;-79
2023/06/01 00:53:44;;;;;;;;;;;16.30;72.30;;;;;;5028486;28;19912;-79
2023/06/01 00:56:11;;;;;;;;;;;16.20;72.40;;;;;;5040713;28;19936;-79
2023/06/01 00:58:37;;;;;;;;;;;16.20;72.90;;;;;;5031811;28;20659;-79
2023/06/01 01:01:03;;;;;;;;;;;16.20;73.30;;;;;;5030182;28;20297;-79
2023/06/01 01:03:31;;;;;;;;;;;16.10;74.00;;;;;;5043875;28;19908;-79
2023/06/01 01:06:17;;;;;;;;;;;16.20;74.00;;;;;;5033066;28;19913;-79
2023/06/01 01:09:10;;;;;;;;;;;16.10;74.40;;;;;;5036326;28;19921;-78
2023/06/01 01:11:37;;;;;;;;;;;16.20;74.40;;;;;;5036389;28;19920;-78
2023/06/01 01:14:41;;;;;;;;;;;16.20;74.40;;;;;;5033834;28;20023;-77
2023/06/01 01:17:07;;;;;;;;;;;16.30;74.30;;;;;;4973854;28;19981;-77
2023/06/01 01:19:35;;;;;;;;;;;16.30;74.10;;;;;;4983360;28;19957;-77
2023/06/01 01:22:22;;;;;;;;;;;16.40;73.70;;;;;;5010452;28;20415;-78
2023/06/01 01:25:03;;;;;;;;;;;16.40;73.50;;;;;;5029405;28;19912;-78
2023/06/01 01:27:47;;;;;;;;;;;16.40;73.50;;;;;;5034565;28;19919;-78
2023/06/01 01:30:13;;;;;;;;;;;16.40;73.80;;;;;;5026953;28;19925;-77
2023/06/01 01:32:39;;;;;;;;;;;16.40;74.30;;;;;;5026805;28;20394;-78
2023/06/01 01:35:05;;;;;;;;;;;16.40;74.10;;;;;;5026660;28;20258;-77
2023/06/01 01:37:32;;;;;;;;;;;16.40;74.10;;;;;;5035367;28;20429;-78
2023/06/01 01:39:58;;;;;;;;;;;16.40;73.80;;;;;;5037940;28;19916;-77
2023/06/01 01:42:24;;;;;;;;;;;16.40;73.90;;;;;;5027328;28;20413;-78
2023/06/01 01:44:49;;;;;;;;;;;16.30;73.70;;;;;;5037237;28;19936;-77
2023/06/01 01:47:41;;;;;;;;;;;16.30;73.90;;;;;;5031193;28;20447;-77
2023/06/01 01:50:09;;;;;;;;;;;16.20;74.20;;;;;;5035759;28;19955;-77
2023/06/01 01:52:45;;;;;;;;;;;16.30;74.20;;;;;;5027017;28;19913;-78
2023/06/01 01:55:11;;;;;;;;;;;16.30;74.40;;;;;;5031981;28;19912;-77
2023/06/01 01:57:37;;;;;;;;;;;16.20;74.80;;;;;;5030012;28;19928;-77
2023/06/01 02:00:04;;;;;;;;;;;16.20;74.70;;;;;;5038373;28;19912;-77
2023/06/01 02:02:30;;;;;;;;;;;16.10;75.00;;;;;;5032539;28;19913;-77
2023/06/01 02:04:56;;;;;;;;;;;16.10;75.10;;;;;;5029141;28;19917;-77
2023/06/01 02:07:21;;;;;;;;;;;16.10;75.20;;;;;;5042737;28;20000;-78
2023/06/01 02:09:47;;;;;;;;;;;16.10;75.20;;;;;;5032224;28;19920;-78
2023/06/01 02:12:12;;;;;;;;;;;16.10;75.00;;;;;;5035505;28;19947;-77
2023/06/01 02:14:38;;;;;;;;;;;16.10;75.00;;;;;;5032601;28;19917;-77
2023/06/01 02:17:05;;;;;;;;;;;16.10;75.20;;;;;;5025368;28;19996;-77
2023/06/01 02:19:31;;;;;;;;;;;16.00;75.60;;;;;;5033927;28;19920;-77
2023/06/01 02:21:57;;;;;;;;;;;16.00;75.70;;;;;;5032126;28;19913;-77
2023/06/01 02:24:22;;;;;;;;;;;16.00;75.90;;;;;;5030457;28;19936;-77
2023/06/01 02:26:51;;;;;;;;;;;15.90;76.10;;;;;;5033779;28;20002;-77
2023/06/01 02:29:19;;;;;;;;;;;15.90;76.00;;;;;;5034868;28;20717;-77
2023/06/01 02:31:45;;;;;;;;;;;15.90;76.10;;;;;;5028790;28;19913;-78
2023/06/01 02:34:10;;;;;;;;;;;15.80;76.50;;;;;;5034529;28;19956;-77
2023/06/01 02:36:36;;;;;;;;;;;15.80;76.50;;;;;;5036748;28;19920;-77
2023/06/01 02:39:01;;;;;;;;;;;15.80;76.60;;;;;;5029662;28;19971;-77
2023/06/01 02:41:27;;;;;;;;;;;15.80;76.50;;;;;;5041407;28;19917;-77
2023/06/01 02:43:52;;;;;;;;;;;15.80;76.60;;;;;;5037300;28;19909;-79
2023/06/01 02:46:18;;;;;;;;;;;15.80;77.00;;;;;;5042040;28;19909;-78
2023/06/01 02:48:44;;;;;;;;;;;15.70;77.30;;;;;;5029076;28;20372;-77
2023/06/01 02:51:10;;;;;;;;;;;15.60;77.80;;;;;;5037746;28;20323;-77
2023/06/01 02:53:35;;;;;;;;;;;15.60;78.10;;;;;;5030093;28;19971;-78
2023/06/01 02:56:01;;;;;;;;;;;15.60;78.20;;;;;;5036659;28;19912;-78
2023/06/01 02:58:29;;;;;;;;;;;15.70;78.30;;;;;;5029629;28;20579;-78
2023/06/01 03:00:55;;;;;;;;;;;15.70;78.10;;;;;;5033616;28;20377;-78
2023/06/01 03:03:21;;;;;;;;;;;15.70;78.30;;;;;;5029460;28;19935;-78
2023/06/01 03:05:47;;;;;;;;;;;15.70;78.30;;;;;;5033186;28;20404;-78
2023/06/01 03:08:13;;;;;;;;;;;15.70;78.40;;;;;;5035814;28;19913;-78
2023/06/01 03:10:39;;;;;;;;;;;15.60;78.60;;;;;;5025760;28;19915;-78
2023/06/01 03:13:04;;;;;;;;;;;15.50;78.90;;;;;;5031983;28;19909;-78
2023/06/01 03:15:30;;;;;;;;;;;15.50;79.30;;;;;;5029500;28;19913;-78
2023/06/01 03:17:55;;;;;;;;;;;15.30;80.00;;;;;;5033538;28;19913;-79
2023/06/01 03:20:21;;;;;;;;;;;15.30;80.40;;;;;;5034234;28;19990;-78
2023/06/01 03:22:46;;;;;;;;;;;15.20;80.80;;;;;;5026943;28;19913;-78
2023/06/01 03:25:12;;;;;;;;;;;15.20;80.70;;;;;;5026895;28;19920;-78
2023/06/01 03:27:39;;;;;;;;;;;15.30;80.70;;;;;;5029421;28;20017;-78
2023/06/01 03:30:09;;;;;;;;;;;15.30;80.50;;;;;;5026418;28;19921;-77
2023/06/01 03:32:36;;;;;;;;;;;15.40;80.50;;;;;;5027853;28;20687;-77
2023/06/01 03:35:01;;;;;;;;;;;15.40;80.50;;;;;;5022535;28;19916;-77
2023/06/01 03:37:27;;;;;;;;;;;15.30;80.90;;;;;;5040207;28;19912;-77
2023/06/01 03:39:52;;;;;;;;;;;15.30;81.30;;;;;;5027452;28;19928;-77
2023/06/01 03:42:19;;;;;;;;;;;15.30;81.10;;;;;;5031379;28;19916;-77
2023/06/01 03:44:45;;;;;;;;;;;15.30;81.00;;;;;;5024700;28;19990;-77
2023/06/01 03:47:10;;;;;;;;;;;15.40;81.00;;;;;;5031302;28;20007;-78
2023/06/01 03:49:36;;;;;;;;;;;15.40;81.30;;;;;;5037932;28;20493;-78
2023/06/01 03:52:01;;;;;;;;;;;15.60;80.40;;;;;;5007245;28;19917;-77
2023/06/01 03:54:27;;;;;;;;;;;15.60;80.30;;;;;;5033139;28;19908;-77
2023/06/01 03:56:52;;;;;;;;;;;15.60;80.20;;;;;;5032588;28;21000;-78
2023/06/01 03:59:18;;;;;;;;;;;15.60;80.30;;;;;;5038663;28;19955;-77
2023/06/01 04:01:48;;;;;;;;;;;15.50;80.60;;;;;;5024129;28;20075;-77
2023/06/01 04:04:16;;;;;;;;;;;15.50;80.60;;;;;;5027524;28;19920;-77
2023/06/01 04:06:44;;;;;;;;;;;15.60;80.70;;;;;;5034978;28;19913;-77
2023/06/01 04:09:10;;;;;;;;;;;15.50;81.20;;;;;;5035756;28;19920;-77
2023/06/01 04:11:36;;;;;;;;;;;15.40;81.60;;;;;;5039985;28;20673;-77
2023/06/01 04:14:02;;;;;;;;;;;15.30;81.70;;;;;;5034501;28;19913;-77
2023/06/01 04:16:28;;;;;;;;;;;15.30;81.80;;;;;;5042278;28;19964;-77
2023/06/01 04:18:53;;;;;;;;;;;15.30;81.80;;;;;;5045401;28;19915;-77
2023/06/01 04:21:22;;;;;;;;;;;15.30;81.90;;;;;;5045783;28;20359;-77
2023/06/01 04:23:47;;;;;;;;;;;15.30;82.10;;;;;;5042794;28;19908;-77
2023/06/01 04:26:13;;;;;;;;;;;15.30;82.00;;;;;;5044008;28;19982;-77
2023/06/01 04:28:43;;;;;;;;;;;15.30;81.90;;;;;;5044172;28;19947;-77
2023/06/01 04:31:16;;;;;;;;;;;15.30;81.80;;;;;;5033422;28;19912;-77
2023/06/01 04:33:52;;;;;;;;;;;15.40;81.70;;;;;;5040031;28;20448;-77
2023/06/01 04:36:22;;;;;;;;;;;15.40;81.60;;;;;;5042671;28;19908;-77
2023/06/01 04:38:51;;;;;;;;;;;15.50;81.40;;;;;;5038306;28;19909;-77
2023/06/01 04:41:17;;;;;;;;;;;15.30;82.40;;;;;;5042454;28;19913;-76
2023/06/01 04:43:42;;;;;;;;;;;15.30;82.70;;;;;;5040945;28;19913;-75
2023/06/01 04:46:08;;;;;;;;;;;15.30;82.80;;;;;;5042027;28;19986;-75
2023/06/01 04:48:34;;;;;;;;;;;15.40;82.70;;;;;;5042324;28;19970;-75
2023/06/01 04:50:59;;;;;;;;;;;15.40;82.80;;;;;;5044117;28;19958;-75
2023/06/01 04:53:26;;;;;;;;;;;16.00;80.80;;;;;;5042546;28;20023;-75
2023/06/01 04:55:51;;;;;;;;;;;16.00;80.20;;;;;;5036811;28;19917;-75
2023/06/01 04:58:17;;;;;;;;;;;16.20;79.70;;;;;;5034099;28;19995;-75
2023/06/01 05:00:43;;;;;;;;;;;17.00;77.40;;;;;;5044792;28;20662;-75
2023/06/01 05:03:08;;;;;;;;;;;17.80;75.20;;;;;;5044196;28;19909;-75
2023/06/01 05:05:34;;;;;;;;;;;18.30;73.40;;;;;;5044040;28;20410;-76
2023/06/01 05:07:59;;;;;;;;;;;18.80;72.30;;;;;;5040788;28;19920;-76
2023/06/01 05:10:25;;;;;;;;;;;18.20;72.90;;;;;;5036662;28;19913;-77
2023/06/01 05:12:50;;;;;;;;;;;17.90;73.80;;;;;;5041440;28;20413;-76
2023/06/01 05:15:16;;;;;;;;;;;17.40;75.40;;;;;;5038431;28;19913;-75
2023/06/01 05:17:42;;;;;;;;;;;18.70;72.30;;;;;;5040371;28;19947;-77
2023/06/01 05:20:08;;;;;;;;;;;19.70;69.10;;;;;;5036813;28;19980;-75
2023/06/01 05:22:35;;;;;;;;;;;20.20;67.90;;;;;;5038192;28;20407;-75
2023/06/01 05:25:01;;;;;;;;;;;20.90;66.00;;;;;;5034429;28;19921;-76
2023/06/01 05:27:26;;;;;;;;;;;21.30;64.60;;;;;;5034190;28;19920;-76
2023/06/01 05:29:52;;;;;;;;;;;21.40;63.80;;;;;;5028109;28;19954;-76
2023/06/01 05:32:18;;;;;;;;;;;21.40;63.80;;;;;;5037856;28;19913;-75
2023/06/01 05:34:43;;;;;;;;;;;21.60;63.90;;;;;;5038744;28;20659;-76
2023/06/01 05:37:09;;;;;;;;;;;21.70;63.20;;;;;;5037498;28;19913;-75
2023/06/01 05:39:34;;;;;;;;;;;21.90;62.30;;;;;;5041121;28;20296;-75
2023/06/01 05:42:00;;;;;;;;;;;22.20;62.00;;;;;;5042612;28;20325;-75
2023/06/01 05:44:26;;;;;;;;;;;22.50;60.90;;;;;;5028730;28;19996;-76
2023/06/01 05:46:52;;;;;;;;;;;22.80;59.80;;;;;;5037978;28;19949;-76
2023/06/01 05:49:18;;;;;;;;;;;22.90;59.60;;;;;;5038446;28;19928;-76
2023/06/01 05:51:46;;;;;;;;;;;23.30;58.60;;;;;;5036332;28;19974;-76
2023/06/01 05:54:12;;;;;;;;;;;23.30;58.50;;;;;;5043609;28;19913;-76
2023/06/01 05:56:37;;;;;;;;;;;23.20;58.70;;;;;;5030542;28;19931;-76
2023/06/01 05:59:03;;;;;;;;;;;23.50;57.90;;;;;;5042790;28;19917;-76
2023/06/01 06:01:29;;;;;;;;;;;23.00;58.10;;;;;;5040305;28;20007;-76
2023/06/01 06:03:55;;;;;;;;;;;23.50;57.80;;;;;;5043321;28;20305;-76
2023/06/01 06:06:22;;;;;;;;;;;24.80;54.60;;;;;;5038726;28;19909;-76
2023/06/01 06:08:47;;;;;;;;;;;25.10;53.00;;;;;;5036904;28;19928;-76
2023/06/01 06:11:13;;;;;;;;;;;25.70;53.00;;;;;;5043686;28;19912;-79
2023/06/01 06:13:38;;;;;;;;;;;25.90;51.30;;;;;;5039827;28;19923;-79
2023/06/01 06:16:04;;;;;;;;;;;26.00;52.40;;;;;;5039388;28;20403;-78
2023/06/01 06:18:30;;;;;;;;;;;25.90;51.90;;;;;;5038929;28;20733;-77
2023/06/01 06:20:55;;;;;;;;;;;25.80;52.20;;;;;;5040040;28;20348;-79
2023/06/01 06:23:21;;;;;;;;;;;26.20;51.30;;;;;;5041946;28;20003;-78
2023/06/01 06:25:48;;;;;;;;;;;26.90;50.00;;;;;;5035787;28;19913;-79
2023/06/01 06:28:14;;;;;;;;;;;27.40;49.20;;;;;;5034920;28;19928;-79
2023/06/01 06:30:39;;;;;;;;;;;27.50;48.30;;;;;;5033186;28;19913;-79
2023/06/01 06:33:05;;;;;;;;;;;27.80;48.10;;;;;;5039788;28;20368;-77
2023/06/01 06:35:31;;;;;;;;;;;28.00;47.70;;;;;;5033582;28;20768;-78
2023/06/01 06:37:56;;;;;;;;;;;28.10;47.60;;;;;;5031876;28;19909;-77
2023/06/01 06:40:22;;;;;;;;;;;28.00;46.80;;;;;;5040312;28;19948;-78
2023/06/01 06:42:49;;;;;;;;;;;28.40;46.90;;;;;;5036251;28;19915;-77
2023/06/01 06:45:14;;;;;;;;;;;28.60;46.60;;;;;;5039293;28;20003;-78
2023/06/01 06:47:41;;;;;;;;;;;28.40;46.40;;;;;;5034242;28;20016;-79
2023/06/01 06:50:07;;;;;;;;;;;29.00;45.90;;;;;;5038922;28;19952;-79
2023/06/01 06:52:33;;;;;;;;;;;28.80;45.60;;;;;;5032553;28;19966;-79
2023/06/01 06:54:58;;;;;;;;;;;29.50;46.50;;;;;;5037257;28;20431;-79
2023/06/01 06:57:24;;;;;;;;;;;29.80;45.30;;;;;;5030789;28;20432;-78
2023/06/01 06:59:50;;;;;;;;;;;29.80;44.70;;;;;;5036635;28;20609;-78
2023/06/01 07:02:16;;;;;;;;;;;30.00;44.00;;;;;;5029872;28;20506;-78
2023/06/01 07:04:41;;;;;;;;;;;30.70;43.30;;;;;;5034947;28;19916;-78
2023/06/01 07:07:08;;;;;;;;;;;30.90;42.70;;;;;;5028580;28;19909;-78
2023/06/01 07:09:34;;;;;;;;;;;31.40;42.30;;;;;;5040670;28;20568;-79
2023/06/01 07:11:59;;;;;;;;;;;31.70;41.10;;;;;;5036556;28;19908;-79
2023/06/01 07:14:25;;;;;;;;;;;32.00;41.30;;;;;;5030879;28;19908;-78
2023/06/01 07:16:50;;;;;;;;;;;31.80;41.60;;;;;;5026451;28;19909;-78
2023/06/01 07:19:16;;;;;;;;;;;32.60;41.50;;;;;;5028600;28;20371;-78
2023/06/01 07:21:42;;;;;;;;;;;32.30;40.80;;;;;;5032697;28;19939;-78
2023/06/01 07:24:08;;;;;;;;;;;33.00;40.60;;;;;;5023510;28;19916;-78
2023/06/01 07:26:33;;;;;;;;;;;33.80;40.10;;;;;;5036865;28;19936;-79
2023/06/01 07:28:59;;;;;;;;;;;33.90;39.40;;;;;;5041070;28;20015;-79
2023/06/01 07:31:27;;;;;;;;;;;33.90;39.40;;;;;;5041252;28;19920;-78
2023/06/01 07:33:55;;;;;;;;;;;34.20;39.00;;;;;;5024361;28;20015;-78
2023/06/01 07:36:23;;;;;;;;;;;33.30;40.00;;;;;;5039666;28;20656;-79
2023/06/01 07:38:49;;;;;;;;;;;34.20;39.10;;;;;;5041970;28;20000;-79
2023/06/01 07:41:14;;;;;;;;;;;33.40;38.60;;;;;;5022944;28;19995;-79
2023/06/01 07:43:40;;;;;;;;;;;34.20;39.80;;;;;;5033399;28;20675;-79
2023/06/01 07:46:06;;;;;;;;;;;34.20;37.80;;;;;;5024366;28;19909;-79
2023/06/01 07:48:35;;;;;;;;;;;34.20;37.40;;;;;;5031242;28;19932;-79
2023/06/01 07:51:04;;;;;;;;;;;35.10;37.50;;;;;;5039123;28;19909;-79
2023/06/01 07:53:33;;;;;;;;;;;34.90;37.30;;;;;;5035513;28;19913;-80
2023/06/01 07:55:58;;;;;;;;;;;35.20;37.10;;;;;;5026097;28;19909;-80
2023/06/01 07:58:24;;;;;;;;;;;34.50;35.70;;;;;;5032240;28;19914;-79
2023/06/01 08:00:50;;;;;;;;;;;35.00;37.40;;;;;;5037514;28;19916;-80
2023/06/01 08:03:15;;;;;;;;;;;35.80;37.50;;;;;;5041732;28;20372;-79
2023/06/01 08:05:44;;;;;;;;;;;36.20;35.90;;;;;;5038148;28;19909;-79
2023/06/01 08:08:10;;;;;;;;;;;36.80;35.30;;;;;;5034512;28;20458;-80
2023/06/01 08:10:35;;;;;;;;;;;36.50;35.10;;;;;;5018271;28;19916;-79
2023/06/01 08:13:02;;;;;;;;;;;37.10;34.90;;;;;;5035778;28;20466;-78
2023/06/01 08:15:28;;;;;;;;;;;37.10;34.30;;;;;;5037400;28;19909;-79
2023/06/01 08:17:54;;;;;;;;;;;38.30;34.10;;;;;;5032633;28;19908;-78
2023/06/01 08:20:23;;;;;;;;;;;37.50;32.40;;;;;;5017408;28;20403;-78
2023/06/01 08:22:49;;;;;;;;;;;38.30;33.10;;;;;;5033948;28;19999;-79
2023/06/01 08:25:14;;;;;;;;;;;38.60;33.60;;;;;;5032918;28;20394;-79
2023/06/01 08:27:41;;;;;;;;;;;37.50;32.60;;;;;;5041117;28;19919;-79
2023/06/01 08:30:07;;;;;;;;;;;37.20;33.50;;;;;;5028175;28;19996;-79
2023/06/01 08:32:32;;;;;;;;;;;34.90;37.00;;;;;;5039940;28;19998;-80
2023/06/01 08:34:58;;;;;;;;;;;36.20;35.20;;;;;;5036522;28;20374;-79
2023/06/01 08:37:24;;;;;;;;;;;37.70;33.10;;;;;;5032488;28;19908;-80
2023/06/01 08:39:50;;;;;;;;;;;38.20;32.80;;;;;;5028031;28;20520;-78
2023/06/01 08:42:21;;;;;;;;;;;39.00;32.90;;;;;;5038239;28;19908;-79
2023/06/01 08:44:46;;;;;;;;;;;39.10;31.10;;;;;;5032573;28;20485;-79
2023/06/01 08:47:12;;;;;;;;;;;38.70;30.70;;;;;;5029819;28;19912;-79
2023/06/01 08:49:40;;;;;;;;;;;39.80;32.30;;;;;;5014496;28;20311;-79
2023/06/01 08:52:11;;;;;;;;;;;39.20;31.80;;;;;;5038039;28;20000;-79
2023/06/01 08:54:37;;;;;;;;;;;39.90;31.70;;;;;;5034406;28;19909;-79
2023/06/01 08:57:04;;;;;;;;;;;39.20;31.90;;;;;;5033078;28;20511;-79
2023/06/01 08:59:30;;;;;;;;;;;40.50;31.80;;;;;;5031850;28;19908;-79
2023/06/01 09:01:57;;;;;;;;;;;41.20;31.50;;;;;;5031595;28;19909;-79
2023/06/01 09:04:22;;;;;;;;;;;40.40;30.80;;;;;;5032395;28;19913;-79
2023/06/01 09:06:48;;;;;;;;;;;40.40;31.70;;;;;;5037417;28;19974;-80
2023/06/01 09:09:14;;;;;;;;;;;40.10;30.90;;;;;;5029213;28;19917;-79
2023/06/01 09:11:39;;;;;;;;;;;38.80;31.20;;;;;;5031263;28;19938;-79
2023/06/01 09:14:25;;;;;;;;;;;38.30;31.10;;;;;;5025957;28;19909;-79
2023/06/01 09:16:51;;;;;;;;;;;38.90;30.90;;;;;;5022871;28;19909;-80
2023/06/01 09:19:20;;;;;;;;;;;39.60;30.40;;;;;;5040723;28;19909;-80
2023/06/01 09:21:59;;;;;;;;;;;40.60;29.70;;;;;;5031039;28;19909;-80
2023/06/01 09:24:25;;;;;;;;;;;39.80;29.90;;;;;;5029364;28;19909;-79
2023/06/01 09:26:51;;;;;;;;;;;35.40;31.00;;;;;;5041696;28;19917;-80
2023/06/01 09:29:17;;;;;;;;;;;31.20;37.50;;;;;;5034274;28;20011;-78
2023/06/01 09:31:48;;;;;;;;;;;37.00;32.40;;;;;;5025544;28;20533;-79
2023/06/01 09:34:16;;;;;;;;;;;39.40;30.40;;;;;;5026106;28;19909;-80
2023/06/01 09:36:42;;;;;;;;;;;38.80;30.80;;;;;;5037799;28;20429;-78
2023/06/01 09:39:09;;;;;;;;;;;40.40;29.80;;;;;;5034416;28;19913;-78
2023/06/01 09:41:52;;;;;;;;;;;39.20;29.60;;;;;;5028508;28;20434;-79
2023/06/01 09:44:27;;;;;;;;;;;36.00;32.70;;;;;;5024742;28;19909;-79
2023/06/01 09:46:54;;;;;;;;;;;40.00;31.70;;;;;;5030911;28;19920;-78
2023/06/01 09:49:20;;;;;;;;;;;41.60;30.70;;;;;;5028099;28;19917;-79
2023/06/01 09:51:46;;;;;;;;;;;41.90;29.70;;;;;;5030263;28;19909;-78
2023/06/01 09:54:25;;;;;;;;;;;37.60;31.90;;;;;;5027120;28;19913;-79
2023/06/01 09:56:51;;;;;;;;;;;34.80;33.60;;;;;;5024045;28;19909;-78
2023/06/01 09:59:17;;;;;;;;;;;36.70;33.90;;;;;;5037525;28;20697;-79
2023/06/01 10:01:43;;;;;;;;;;;39.20;29.50;;;;;;5031568;28;20000;-79
2023/06/01 10:04:10;;;;;;;;;;;40.00;30.40;;;;;;5031559;28;20024;-79
2023/06/01 10:06:38;;;;;;;;;;;40.10;29.90;;;;;;5036452;28;20035;-79
2023/06/01 10:09:06;;;;;;;;;;;38.90;30.60;;;;;;5031151;28;20047;-79
2023/06/01 10:11:32;;;;;;;;;;;40.40;29.10;;;;;;5036755;28;19962;-78
2023/06/01 10:13:58;;;;;;;;;;;38.60;28.20;;;;;;5029793;28;20354;-79
2023/06/01 10:16:23;;;;;;;;;;;36.20;33.30;;;;;;5036270;28;19916;-78
2023/06/01 10:18:50;;;;;;;;;;;35.50;30.90;;;;;;5037778;28;20288;-79
2023/06/01 10:21:17;;;;;;;;;;;33.60;33.90;;;;;;5034443;28;20015;-79
2023/06/01 10:23:42;;;;;;;;;;;34.00;36.00;;;;;;5037182;28;19920;-78
2023/06/01 10:26:12;;;;;;;;;;;38.70;30.50;;;;;;5039128;28;20383;-79
2023/06/01 10:28:38;;;;;;;;;;;38.60;30.30;;;;;;5028324;28;19921;-78
2023/06/01 10:31:23;;;;;;;;;;;34.80;31.30;;;;;;5031706;28;19916;-80
2023/06/01 10:33:52;;;;;;;;;;;32.90;35.00;;;;;;5023968;28;20639;-78
2023/06/01 10:36:18;;;;;;;;;;;33.80;34.10;;;;;;5026049;28;20383;-79
2023/06/01 10:38:44;;;;;;;;;;;34.90;34.20;;;;;;5035211;28;19909;-80
2023/06/01 10:41:26;;;;;;;;;;;35.80;32.40;;;;;;5033751;28;20310;-78
2023/06/01 10:43:52;;;;;;;;;;;34.10;34.10;;;;;;5031754;28;20287;-79
2023/06/01 10:46:29;;;;;;;;;;;33.60;33.00;;;;;;5036136;28;19911;-78
2023/06/01 10:48:56;;;;;;;;;;;32.00;35.10;;;;;;5039296;28;19918;-80
2023/06/01 10:51:25;;;;;;;;;;;31.20;37.30;;;;;;5032690;28;20366;-78
2023/06/01 10:53:52;;;;;;;;;;;30.80;37.30;;;;;;5027531;28;19909;-78
2023/06/01 10:56:22;;;;;;;;;;;31.70;37.50;;;;;;5034178;28;19909;-79
2023/06/01 10:59:10;;;;;;;;;;;30.60;36.70;;;;;;5036070;28;20028;-78
2023/06/01 11:01:40;;;;;;;;;;;30.50;37.80;;;;;;5035706;28;19909;-78
2023/06/01 11:04:06;;;;;;;;;;;30.00;37.20;;;;;;5025465;28;19952;-78
2023/06/01 11:06:34;;;;;;;;;;;30.40;38.10;;;;;;5023507;28;20496;-78
2023/06/01 11:09:00;;;;;;;;;;;30.20;37.40;;;;;;5034278;28;20054;-78
2023/06/01 11:11:45;;;;;;;;;;;29.90;38.70;;;;;;5025058;28;19909;-78
2023/06/01 11:14:11;;;;;;;;;;;29.30;38.80;;;;;;5028834;28;19917;-78
2023/06/01 11:16:37;;;;;;;;;;;29.50;39.10;;;;;;5027654;28;19908;-79
2023/06/01 11:19:03;;;;;;;;;;;29.00;39.20;;;;;;5027427;28;19951;-78
2023/06/01 11:21:33;;;;;;;;;;;30.20;38.10;;;;;;5025800;28;19959;-78
2023/06/01 11:24:00;;;;;;;;;;;30.50;38.20;;;;;;5032850;28;20619;-78
2023/06/01 11:26:30;;;;;;;;;;;30.10;40.70;;;;;;5035792;28;20358;-78
2023/06/01 11:29:13;;;;;;;;;;;29.30;42.50;;;;;;5021997;28;19920;-78
2023/06/01 11:31:40;;;;;;;;;;;29.80;40.30;;;;;;5037361;28;19916;-79
2023/06/01 11:34:07;;;;;;;;;;;29.80;40.80;;;;;;5040766;28;19940;-78
2023/06/01 11:36:36;;;;;;;;;;;30.20;39.90;;;;;;5037279;28;19920;-78
2023/06/01 11:39:02;;;;;;;;;;;30.20;41.60;;;;;;5041918;28;19913;-79
2023/06/01 11:41:27;;;;;;;;;;;30.50;41.20;;;;;;5036993;28;19916;-79
2023/06/01 11:43:55;;;;;;;;;;;30.20;41.50;;;;;;5040023;28;19912;-78
2023/06/01 11:46:20;;;;;;;;;;;29.90;40.90;;;;;;5026727;28;20024;-79
2023/06/01 11:49:00;;;;;;;;;;;29.60;43.30;;;;;;5030767;28;20023;-78
2023/06/01 11:51:26;;;;;;;;;;;29.20;40.10;;;;;;5028075;28;19909;-79
2023/06/01 11:53:52;;;;;;;;;;;28.80;41.00;;;;;;5030553;28;19909;-78
2023/06/01 11:56:18;;;;;;;;;;;29.40;42.90;;;;;;5036883;28;19916;-78
2023/06/01 11:58:43;;;;;;;;;;;29.70;41.00;;;;;;5022697;28;20749;-79
2023/06/01 12:01:09;;;;;;;;;;;29.40;39.80;;;;;;5032242;28;19916;-78
2023/06/01 12:03:44;;;;;;;;;;;29.30;41.20;;;;;;5028106;28;19916;-79
2023/06/01 12:06:18;;;;;;;;;;;29.70;40.90;;;;;;5027132;28;19916;-79
2023/06/01 12:08:44;;;;;;;;;;;30.30;40.90;;;;;;5028926;28;19921;-78
2023/06/01 12:11:11;;;;;;;;;;;30.10;41.70;;;;;;5028779;28;19916;-78
2023/06/01 12:13:37;;;;;;;;;;;30.20;41.50;;;;;;5027218;28;19909;-78
2023/06/01 12:16:03;;;;;;;;;;;30.30;40.60;;;;;;5024553;28;19936;-78
2023/06/01 12:18:30;;;;;;;;;;;30.10;44.20;;;;;;5028471;28;20031;-78
2023/06/01 12:20:56;;;;;;;;;;;30.00;43.20;;;;;;5026910;28;19944;-78
2023/06/01 12:23:21;;;;;;;;;;;29.70;44.00;;;;;;5021968;28;20040;-78
2023/06/01 12:25:53;;;;;;;;;;;29.30;44.70;;;;;;5033506;28;20346;-77
2023/06/01 12:28:20;;;;;;;;;;;29.70;40.50;;;;;;5039830;28;20394;-78
2023/06/01 12:30:46;;;;;;;;;;;29.60;42.40;;;;;;5034346;28;20695;-78
2023/06/01 12:33:50;;;;;;;;;;;29.80;40.80;;;;;;5028524;28;19916;-79
2023/06/01 12:36:48;;;;;;;;;;;29.90;40.50;;;;;;4982036;28;19916;-79
2023/06/01 12:39:14;;;;;;;;;;;29.20;41.90;;;;;;4990131;28;19915;-79
2023/06/01 12:41:50;;;;;;;;;;;29.40;41.10;;;;;;5040213;28;20379;-77
2023/06/01 12:44:20;;;;;;;;;;;29.80;41.80;;;;;;5042315;28;20341;-78
2023/06/01 12:46:45;;;;;;;;;;;29.80;41.30;;;;;;5039166;28;19909;-78
2023/06/01 12:49:12;;;;;;;;;;;29.10;40.80;;;;;;5039505;28;19917;-79
2023/06/01 12:51:38;;;;;;;;;;;29.40;41.70;;;;;;5038799;28;19909;-77
2023/06/01 12:54:03;;;;;;;;;;;29.40;44.20;;;;;;5016285;28;19915;-78
2023/06/01 12:56:29;;;;;;;;;;;29.30;43.50;;;;;;5025968;28;19956;-78
2023/06/01 12:58:55;;;;;;;;;;;29.30;43.10;;;;;;5036065;28;19909;-78
2023/06/01 13:01:21;;;;;;;;;;;29.10;42.90;;;;;;5038997;28;19967;-78
2023/06/01 13:03:47;;;;;;;;;;;28.80;43.60;;;;;;5030268;28;19909;-79
2023/06/01 13:06:16;;;;;;;;;;;29.10;41.80;;;;;;5027476;28;19916;-79
2023/06/01 13:08:42;;;;;;;;;;;29.40;42.70;;;;;;5034892;28;20023;-78
2023/06/01 13:11:08;;;;;;;;;;;29.50;45.60;;;;;;5036992;28;19909;-78
2023/06/01 13:13:34;;;;;;;;;;;29.70;44.20;;;;;;5028479;28;20006;-79
2023/06/01 13:16:00;;;;;;;;;;;29.60;44.90;;;;;;5032893;28;20493;-79
2023/06/01 13:18:25;;;;;;;;;;;29.50;43.70;;;;;;5039687;28;19915;-78
2023/06/01 13:20:51;;;;;;;;;;;29.50;44.00;;;;;;5031259;28;19908;-78
2023/06/01 13:23:17;;;;;;;;;;;29.50;44.20;;;;;;5028178;28;19940;-78
2023/06/01 13:25:43;;;;;;;;;;;29.80;42.80;;;;;;5037361;28;19912;-79
2023/06/01 13:28:09;;;;;;;;;;;29.40;42.50;;;;;;5042730;28;20314;-79
2023/06/01 13:30:34;;;;;;;;;;;29.10;42.00;;;;;;5035691;28;19913;-79
2023/06/01 13:33:01;;;;;;;;;;;29.30;42.30;;;;;;5037148;28;19932;-78
2023/06/01 13:35:26;;;;;;;;;;;29.20;42.10;;;;;;5042513;28;19978;-79
2023/06/01 13:37:52;;;;;;;;;;;29.60;41.90;;;;;;5029605;28;20352;-78
2023/06/01 13:40:22;;;;;;;;;;;29.30;41.10;;;;;;5029691;28;19909;-78
2023/06/01 13:42:48;;;;;;;;;;;29.90;41.90;;;;;;5039220;28;19909;-79
2023/06/01 13:45:13;;;;;;;;;;;29.20;41.80;;;;;;5039595;28;19908;-79
2023/06/01 13:47:39;;;;;;;;;;;29.50;41.10;;;;;;5038421;28;20433;-79
2023/06/01 13:50:05;;;;;;;;;;;29.20;39.60;;;;;;5034050;28;19915;-79
2023/06/01 13:52:30;;;;;;;;;;;29.60;43.20;;;;;;5026701;28;20031;-78
2023/06/01 13:54:56;;;;;;;;;;;29.60;45.90;;;;;;5038825;28;20007;-78
2023/06/01 13:57:22;;;;;;;;;;;28.00;45.40;;;;;;5028358;28;19908;-78
2023/06/01 13:59:47;;;;;;;;;;;27.40;47.00;;;;;;5028232;28;21045;-78
2023/06/01 14:02:13;;;;;;;;;;;26.80;46.30;;;;;;5035886;28;19908;-78
2023/06/01 14:04:39;;;;;;;;;;;27.50;48.00;;;;;;5031384;28;19955;-78
2023/06/01 14:07:04;;;;;;;;;;;27.30;47.70;;;;;;5030736;28;19950;-79
2023/06/01 14:09:30;;;;;;;;;;;27.00;45.70;;;;;;5032980;28;19920;-78
2023/06/01 14:11:55;;;;;;;;;;;26.60;47.30;;;;;;5028005;28;19937;-79
2023/06/01 14:14:21;;;;;;;;;;;26.20;47.20;;;;;;5039330;28;19917;-78
2023/06/01 14:16:47;;;;;;;;;;;26.20;47.80;;;;;;5033258;28;19909;-77